sensor_id;sensor_type;location;lat;lon;timestamp;temperature;humidity
68804;SHT31;55787;52.678;13.314;2023-05-20T00:01:50;8.33;85.13
68804;SHT31;55787;52.678;13.314;2023-05-20T00:04:16;8.34;85.76
68804;SHT31;55787;52.678;13.314;2023-05-20T00:06:44;8.36;86.19
68804;SHT31;55787;52.678;13.314;2023-05-20T00:09:11;8.36;87.28
68804;SHT31;55787;52.678;13.314;2023-05-20T00:11:37;8.36;86.79
68804;SHT31;55787;52.678;13.314;2023-05-20T00:14:04;8.37;86.51
68804;SHT31;55787;52.678;13.314;2023-05-20T00:16:31;8.36;86.34
68804;SHT31;55787;52.678;13.314;2023-05-20T00:18:58;8.32;86.26
68804;SHT31;55787;52.678;13.314;2023-05-20T00:21:25;8.29;85.94
68804;SHT31;55787;52.678;13.314;2023-05-20T00:23:52;8.28;87.50
68804;SHT31;55787;52.678;13.314;2023-05-20T00:26:18;8.30;87.93
68804;SHT31;55787;52.678;13.314;2023-05-20T00:28:45;8.30;87.58
68804;SHT31;55787;52.678;13.314;2023-05-20T00:31:12;8.25;87.40
68804;SHT31;55787;52.678;13.314;2023-05-20T00:33:39;8.21;86.96
68804;SHT31;55787;52.678;13.314;2023-05-20T00:36:06;8.15;86.99
68804;SHT31;55787;52.678;13.314;2023-05-20T00:38:33;8.12;87.65
68804;SHT31;55787;52.678;13.314;2023-05-20T00:41:00;8.07;87.56
68804;SHT31;55787;52.678;13.314;2023-05-20T00:43:26;8.05;87.78
68804;SHT31;55787;52.678;13.314;2023-05-20T00:45:53;7.98;87.36
68804;SHT31;55787;52.678;13.314;2023-05-20T00:48:20;7.94;87.27
68804;SHT31;55787;52.678;13.314;2023-05-20T00:50:48;7.92;87.63
68804;SHT31;55787;52.678;13.314;2023-05-20T00:53:16;7.88;87.57
68804;SHT31;55787;52.678;13.314;2023-05-20T00:55:47;7.85;87.75
68804;SHT31;55787;52.678;13.314;2023-05-20T00:58:14;7.82;87.72
68804;SHT31;55787;52.678;13.314;2023-05-20T01:00:41;7.81;88.45
68804;SHT31;55787;52.678;13.314;2023-05-20T01:03:08;7.79;88.50
68804;SHT31;55787;52.678;13.314;2023-05-20T01:05:36;7.78;88.56
68804;SHT31;55787;52.678;13.314;2023-05-20T01:08:06;7.71;88.50
68804;SHT31;55787;52.678;13.314;2023-05-20T01:10:34;7.70;88.48
68804;SHT31;55787;52.678;13.314;2023-05-20T01:13:08;7.67;88.70
68804;SHT31;55787;52.678;13.314;2023-05-20T01:15:37;7.61;89.16
68804;SHT31;55787;52.678;13.314;2023-05-20T01:18:07;7.57;89.30
68804;SHT31;55787;52.678;13.314;2023-05-20T01:20:36;7.54;89.46
68804;SHT31;55787;52.678;13.314;2023-05-20T01:23:03;7.50;89.75
68804;SHT31;55787;52.678;13.314;2023-05-20T01:25:30;7.48;89.84
68804;SHT31;55787;52.678;13.314;2023-05-20T01:27:56;7.43;89.83
68804;SHT31;55787;52.678;13.314;2023-05-20T01:30:29;7.38;89.85
68804;SHT31;55787;52.678;13.314;2023-05-20T01:33:01;7.35;90.12
68804;SHT31;55787;52.678;13.314;2023-05-20T01:35:30;7.34;90.26
68804;SHT31;55787;52.678;13.314;2023-05-20T01:37:58;7.37;90.65
68804;SHT31;55787;52.678;13.314;2023-05-20T01:40:26;7.33;90.63
68804;SHT31;55787;52.678;13.314;2023-05-20T01:42:54;7.30;90.78
68804;SHT31;55787;52.678;13.314;2023-05-20T01:45:22;7.27;90.66
68804;SHT31;55787;52.678;13.314;2023-05-20T01:47:49;7.24;90.61
68804;SHT31;55787;52.678;13.314;2023-05-20T01:50:16;7.24;90.79
68804;SHT31;55787;52.678;13.314;2023-05-20T01:52:43;7.22;90.73
68804;SHT31;55787;52.678;13.314;2023-05-20T01:55:10;7.20;90.97
68804;SHT31;55787;52.678;13.314;2023-05-20T01:57:38;7.17;90.90
68804;SHT31;55787;52.678;13.314;2023-05-20T02:00:05;7.19;91.16
68804;SHT31;55787;52.678;13.314;2023-05-20T02:02:32;7.19;90.93
68804;SHT31;55787;52.678;13.314;2023-05-20T02:04:59;7.20;91.35
68804;SHT31;55787;52.678;13.314;2023-05-20T02:07:26;7.19;91.30
68804;SHT31;55787;52.678;13.314;2023-05-20T02:09:52;7.14;91.26
68804;SHT31;55787;52.678;13.314;2023-05-20T02:12:19;7.14;91.61
68804;SHT31;55787;52.678;13.314;2023-05-20T02:14:46;7.10;91.52
68804;SHT31;55787;52.678;13.314;2023-05-20T02:17:15;7.12;91.70
68804;SHT31;55787;52.678;13.314;2023-05-20T02:19:45;7.12;91.87
68804;SHT31;55787;52.678;13.314;2023-05-20T02:22:13;7.10;91.80
68804;SHT31;55787;52.678;13.314;2023-05-20T02:24:39;7.07;92.09
68804;SHT31;55787;52.678;13.314;2023-05-20T02:27:08;7.07;92.02
68804;SHT31;55787;52.678;13.314;2023-05-20T02:29:35;7.10;92.67
68804;SHT31;55787;52.678;13.314;2023-05-20T02:32:02;7.09;92.94
68804;SHT31;55787;52.678;13.314;2023-05-20T02:34:30;7.06;92.84
68804;SHT31;55787;52.678;13.314;2023-05-20T02:36:57;7.06;92.76
68804;SHT31;55787;52.678;13.314;2023-05-20T02:39:23;7.02;92.66
68804;SHT31;55787;52.678;13.314;2023-05-20T02:41:50;7.02;92.85
68804;SHT31;55787;52.678;13.314;2023-05-20T02:44:17;6.97;92.95
68804;SHT31;55787;52.678;13.314;2023-05-20T02:46:43;6.97;93.07
68804;SHT31;55787;52.678;13.314;2023-05-20T02:49:10;6.96;93.19
68804;SHT31;55787;52.678;13.314;2023-05-20T02:51:37;6.96;93.38
68804;SHT31;55787;52.678;13.314;2023-05-20T02:54:04;6.96;93.76
68804;SHT31;55787;52.678;13.314;2023-05-20T02:56:30;6.97;94.07
68804;SHT31;55787;52.678;13.314;2023-05-20T02:58:57;6.97;94.15
68804;SHT31;55787;52.678;13.314;2023-05-20T03:01:24;7.02;94.24
68804;SHT31;55787;52.678;13.314;2023-05-20T03:03:51;7.03;94.46
68804;SHT31;55787;52.678;13.314;2023-05-20T03:06:18;7.00;94.16
68804;SHT31;55787;52.678;13.314;2023-05-20T03:08:44;7.02;94.38
68804;SHT31;55787;52.678;13.314;2023-05-20T03:11:11;7.03;94.33
68804;SHT31;55787;52.678;13.314;2023-05-20T03:13:38;7.03;94.59
68804;SHT31;55787;52.678;13.314;2023-05-20T03:16:05;7.00;94.25
68804;SHT31;55787;52.678;13.314;2023-05-20T03:18:31;7.00;94.29
68804;SHT31;55787;52.678;13.314;2023-05-20T03:20:58;6.99;94.16
68804;SHT31;55787;52.678;13.314;2023-05-20T03:23:25;6.97;94.30
68804;SHT31;55787;52.678;13.314;2023-05-20T03:25:52;6.99;94.70
68804;SHT31;55787;52.678;13.314;2023-05-20T03:28:19;7.02;94.63
68804;SHT31;55787;52.678;13.314;2023-05-20T03:30:45;7.03;94.48
68804;SHT31;55787;52.678;13.314;2023-05-20T03:33:12;7.07;94.61
68804;SHT31;55787;52.678;13.314;2023-05-20T03:35:40;7.12;94.74
68804;SHT31;55787;52.678;13.314;2023-05-20T03:38:07;7.19;94.79
68804;SHT31;55787;52.678;13.314;2023-05-20T03:40:33;7.23;94.87
68804;SHT31;55787;52.678;13.314;2023-05-20T03:43:00;7.27;95.03
68804;SHT31;55787;52.678;13.314;2023-05-20T03:45:27;7.35;95.06
68804;SHT31;55787;52.678;13.314;2023-05-20T03:47:54;7.48;95.10
68804;SHT31;55787;52.678;13.314;2023-05-20T03:50:21;7.55;95.10
68804;SHT31;55787;52.678;13.314;2023-05-20T03:52:48;7.64;95.35
68804;SHT31;55787;52.678;13.314;2023-05-20T03:55:15;7.72;95.07
68804;SHT31;55787;52.678;13.314;2023-05-20T03:57:42;7.81;94.96
68804;SHT31;55787;52.678;13.314;2023-05-20T04:00:09;7.88;95.01
68804;SHT31;55787;52.678;13.314;2023-05-20T04:02:39;7.96;94.83
68804;SHT31;55787;52.678;13.314;2023-05-20T04:05:06;8.05;94.70
68804;SHT31;55787;52.678;13.314;2023-05-20T04:07:34;8.12;94.48
68804;SHT31;55787;52.678;13.314;2023-05-20T04:10:03;8.22;94.28
68804;SHT31;55787;52.678;13.314;2023-05-20T04:12:30;8.32;94.10
68804;SHT31;55787;52.678;13.314;2023-05-20T04:14:58;8.40;93.88
68804;SHT31;55787;52.678;13.314;2023-05-20T04:17:27;8.47;93.68
68804;SHT31;55787;52.678;13.314;2023-05-20T04:19:56;8.53;93.53
68804;SHT31;55787;52.678;13.314;2023-05-20T04:22:25;8.61;93.32
68804;SHT31;55787;52.678;13.314;2023-05-20T04:24:52;8.68;93.00
68804;SHT31;55787;52.678;13.314;2023-05-20T04:27:19;8.81;93.02
68804;SHT31;55787;52.678;13.314;2023-05-20T04:29:46;8.91;92.75
68804;SHT31;55787;52.678;13.314;2023-05-20T04:32:16;8.97;92.44
68804;SHT31;55787;52.678;13.314;2023-05-20T04:34:44;9.10;92.24
68804;SHT31;55787;52.678;13.314;2023-05-20T04:37:12;9.14;91.84
68804;SHT31;55787;52.678;13.314;2023-05-20T04:39:38;9.18;91.70
68804;SHT31;55787;52.678;13.314;2023-05-20T04:42:05;9.24;91.57
68804;SHT31;55787;52.678;13.314;2023-05-20T04:44:32;9.29;91.09
68804;SHT31;55787;52.678;13.314;2023-05-20T04:46:59;9.35;90.88
68804;SHT31;55787;52.678;13.314;2023-05-20T04:49:25;9.40;90.61
68804;SHT31;55787;52.678;13.314;2023-05-20T04:51:52;9.40;90.47
68804;SHT31;55787;52.678;13.314;2023-05-20T04:54:20;9.43;90.70
68804;SHT31;55787;52.678;13.314;2023-05-20T04:56:47;9.49;90.22
68804;SHT31;55787;52.678;13.314;2023-05-20T04:59:14;9.52;90.26
68804;SHT31;55787;52.678;13.314;2023-05-20T05:01:41;9.55;90.22
68804;SHT31;55787;52.678;13.314;2023-05-20T05:04:08;9.57;90.09
68804;SHT31;55787;52.678;13.314;2023-05-20T05:06:35;9.62;90.04
68804;SHT31;55787;52.678;13.314;2023-05-20T05:09:02;9.67;90.17
68804;SHT31;55787;52.678;13.314;2023-05-20T05:11:28;9.70;89.82
68804;SHT31;55787;52.678;13.314;2023-05-20T05:13:55;9.77;89.92
68804;SHT31;55787;52.678;13.314;2023-05-20T05:16:22;9.82;89.74
68804;SHT31;55787;52.678;13.314;2023-05-20T05:18:49;9.89;89.39
68804;SHT31;55787;52.678;13.314;2023-05-20T05:21:15;9.90;89.16
68804;SHT31;55787;52.678;13.314;2023-05-20T05:23:42;9.93;88.99
68804;SHT31;55787;52.678;13.314;2023-05-20T05:26:09;9.98;88.92
68804;SHT31;55787;52.678;13.314;2023-05-20T05:28:36;10.04;88.97
68804;SHT31;55787;52.678;13.314;2023-05-20T05:31:02;10.10;88.72
68804;SHT31;55787;52.678;13.314;2023-05-20T05:33:29;10.15;88.27
68804;SHT31;55787;52.678;13.314;2023-05-20T05:35:56;10.22;87.97
68804;SHT31;55787;52.678;13.314;2023-05-20T05:38:27;10.25;87.97
68804;SHT31;55787;52.678;13.314;2023-05-20T05:40:53;10.31;87.88
68804;SHT31;55787;52.678;13.314;2023-05-20T05:43:20;10.40;88.04
68804;SHT31;55787;52.678;13.314;2023-05-20T05:45:47;10.46;87.97
68804;SHT31;55787;52.678;13.314;2023-05-20T05:48:13;10.51;87.49
68804;SHT31;55787;52.678;13.314;2023-05-20T05:50:44;10.55;87.31
68804;SHT31;55787;52.678;13.314;2023-05-20T05:53:11;10.56;87.40
68804;SHT31;55787;52.678;13.314;2023-05-20T05:55:38;10.65;86.66
68804;SHT31;55787;52.678;13.314;2023-05-20T05:58:05;10.73;86.66
68804;SHT31;55787;52.678;13.314;2023-05-20T06:00:32;10.75;86.54
68804;SHT31;55787;52.678;13.314;2023-05-20T06:02:59;10.85;86.31
68804;SHT31;55787;52.678;13.314;2023-05-20T06:05:25;10.86;86.02
68804;SHT31;55787;52.678;13.314;2023-05-20T06:07:55;10.95;86.29
68804;SHT31;55787;52.678;13.314;2023-05-20T06:10:21;11.07;86.07
68804;SHT31;55787;52.678;13.314;2023-05-20T06:12:48;11.14;85.64
68804;SHT31;55787;52.678;13.314;2023-05-20T06:15:15;11.24;85.37
68804;SHT31;55787;52.678;13.314;2023-05-20T06:17:42;11.31;84.83
68804;SHT31;55787;52.678;13.314;2023-05-20T06:20:09;11.38;84.58
68804;SHT31;55787;52.678;13.314;2023-05-20T06:22:38;11.50;84.15
68804;SHT31;55787;52.678;13.314;2023-05-20T06:25:05;11.61;83.82
68804;SHT31;55787;52.678;13.314;2023-05-20T06:27:32;11.72;83.33
68804;SHT31;55787;52.678;13.314;2023-05-20T06:29:58;11.82;82.78
68804;SHT31;55787;52.678;13.314;2023-05-20T06:32:26;11.89;82.99
68804;SHT31;55787;52.678;13.314;2023-05-20T06:34:52;11.92;82.08
68804;SHT31;55787;52.678;13.314;2023-05-20T06:37:19;11.99;82.86
68804;SHT31;55787;52.678;13.314;2023-05-20T06:39:46;12.01;82.39
68804;SHT31;55787;52.678;13.314;2023-05-20T06:42:16;12.05;82.32
68804;SHT31;55787;52.678;13.314;2023-05-20T06:44:43;12.08;82.72
68804;SHT31;55787;52.678;13.314;2023-05-20T06:47:13;11.99;82.35
68804;SHT31;55787;52.678;13.314;2023-05-20T06:49:40;11.91;82.85
68804;SHT31;55787;52.678;13.314;2023-05-20T06:52:06;11.86;83.45
68804;SHT31;55787;52.678;13.314;2023-05-20T06:54:33;11.94;83.25
68804;SHT31;55787;52.678;13.314;2023-05-20T06:57:06;11.95;82.60
68804;SHT31;55787;52.678;13.314;2023-05-20T06:59:34;11.96;82.88
68804;SHT31;55787;52.678;13.314;2023-05-20T07:02:02;11.94;83.02
68804;SHT31;55787;52.678;13.314;2023-05-20T07:04:29;12.01;82.65
68804;SHT31;55787;52.678;13.314;2023-05-20T07:06:55;12.06;82.22
68804;SHT31;55787;52.678;13.314;2023-05-20T07:09:22;12.06;82.55
68804;SHT31;55787;52.678;13.314;2023-05-20T07:11:49;12.08;83.21
68804;SHT31;55787;52.678;13.314;2023-05-20T07:14:16;12.21;82.64
68804;SHT31;55787;52.678;13.314;2023-05-20T07:16:43;12.25;82.24
68804;SHT31;55787;52.678;13.314;2023-05-20T07:19:09;12.32;82.83
68804;SHT31;55787;52.678;13.314;2023-05-20T07:21:36;12.39;82.09
68804;SHT31;55787;52.678;13.314;2023-05-20T07:24:03;12.43;81.41
68804;SHT31;55787;52.678;13.314;2023-05-20T07:26:30;12.52;81.32
68804;SHT31;55787;52.678;13.314;2023-05-20T07:28:59;12.70;81.29
68804;SHT31;55787;52.678;13.314;2023-05-20T07:31:25;12.81;79.85
68804;SHT31;55787;52.678;13.314;2023-05-20T07:33:52;12.87;80.32
68804;SHT31;55787;52.678;13.314;2023-05-20T07:36:19;12.90;81.30
68804;SHT31;55787;52.678;13.314;2023-05-20T07:38:46;12.97;79.76
68804;SHT31;55787;52.678;13.314;2023-05-20T07:41:28;13.00;79.10
68804;SHT31;55787;52.678;13.314;2023-05-20T07:43:55;13.02;79.30
68804;SHT31;55787;52.678;13.314;2023-05-20T07:46:22;13.07;80.02
68804;SHT31;55787;52.678;13.314;2023-05-20T07:48:48;13.14;79.20
68804;SHT31;55787;52.678;13.314;2023-05-20T07:51:15;13.24;79.25
68804;SHT31;55787;52.678;13.314;2023-05-20T07:53:42;13.34;79.24
68804;SHT31;55787;52.678;13.314;2023-05-20T07:56:08;13.43;78.72
68804;SHT31;55787;52.678;13.314;2023-05-20T07:58:35;13.58;78.56
68804;SHT31;55787;52.678;13.314;2023-05-20T08:01:02;13.69;77.92
68804;SHT31;55787;52.678;13.314;2023-05-20T08:03:29;13.77;77.63
68804;SHT31;55787;52.678;13.314;2023-05-20T08:05:56;13.93;77.26
68804;SHT31;55787;52.678;13.314;2023-05-20T08:08:22;14.00;76.75
68804;SHT31;55787;52.678;13.314;2023-05-20T08:10:50;14.04;76.91
68804;SHT31;55787;52.678;13.314;2023-05-20T08:13:16;14.17;75.70
68804;SHT31;55787;52.678;13.314;2023-05-20T08:15:43;14.28;75.92
68804;SHT31;55787;52.678;13.314;2023-05-20T08:18:10;14.49;74.39
68804;SHT31;55787;52.678;13.314;2023-05-20T08:20:37;14.73;74.16
68804;SHT31;55787;52.678;13.314;2023-05-20T08:23:04;14.93;72.84
68804;SHT31;55787;52.678;13.314;2023-05-20T08:25:30;15.04;72.30
68804;SHT31;55787;52.678;13.314;2023-05-20T08:28:00;15.13;72.03
68804;SHT31;55787;52.678;13.314;2023-05-20T08:30:29;15.20;72.12
68804;SHT31;55787;52.678;13.314;2023-05-20T08:32:56;15.36;73.04
68804;SHT31;55787;52.678;13.314;2023-05-20T08:35:23;15.39;72.30
68804;SHT31;55787;52.678;13.314;2023-05-20T08:37:50;15.58;72.14
68804;SHT31;55787;52.678;13.314;2023-05-20T08:40:20;15.72;70.55
68804;SHT31;55787;52.678;13.314;2023-05-20T08:42:48;15.75;71.59
68804;SHT31;55787;52.678;13.314;2023-05-20T08:45:18;15.81;71.93
68804;SHT31;55787;52.678;13.314;2023-05-20T08:47:45;15.88;70.20
68804;SHT31;55787;52.678;13.314;2023-05-20T08:50:13;15.75;70.60
68804;SHT31;55787;52.678;13.314;2023-05-20T08:52:44;15.74;70.25
68804;SHT31;55787;52.678;13.314;2023-05-20T08:55:17;16.04;70.49
68804;SHT31;55787;52.678;13.314;2023-05-20T08:57:49;16.21;69.85
68804;SHT31;55787;52.678;13.314;2023-05-20T09:00:16;16.34;68.55
68804;SHT31;55787;52.678;13.314;2023-05-20T09:02:44;16.53;68.50
68804;SHT31;55787;52.678;13.314;2023-05-20T09:05:12;16.71;68.20
68804;SHT31;55787;52.678;13.314;2023-05-20T09:07:39;16.80;68.18
68804;SHT31;55787;52.678;13.314;2023-05-20T09:10:08;17.03;67.79
68804;SHT31;55787;52.678;13.314;2023-05-20T09:12:35;17.24;66.04
68804;SHT31;55787;52.678;13.314;2023-05-20T09:15:03;17.49;66.32
68804;SHT31;55787;52.678;13.314;2023-05-20T09:17:30;17.65;63.99
68804;SHT31;55787;52.678;13.314;2023-05-20T09:19:57;17.48;64.28
68804;SHT31;55787;52.678;13.314;2023-05-20T09:22:27;17.53;64.13
68804;SHT31;55787;52.678;13.314;2023-05-20T09:24:54;17.73;63.64
68804;SHT31;55787;52.678;13.314;2023-05-20T09:27:21;17.66;64.59
68804;SHT31;55787;52.678;13.314;2023-05-20T09:29:50;17.83;64.32
68804;SHT31;55787;52.678;13.314;2023-05-20T09:32:19;17.87;63.64
68804;SHT31;55787;52.678;13.314;2023-05-20T09:34:47;17.56;63.13
68804;SHT31;55787;52.678;13.314;2023-05-20T09:37:16;17.21;64.94
68804;SHT31;55787;52.678;13.314;2023-05-20T09:39:54;17.08;65.34
68804;SHT31;55787;52.678;13.314;2023-05-20T09:45:24;16.97;66.25
68804;SHT31;55787;52.678;13.314;2023-05-20T09:47:51;16.59;66.39
68804;SHT31;55787;52.678;13.314;2023-05-20T09:50:19;16.43;67.43
68804;SHT31;55787;52.678;13.314;2023-05-20T09:52:48;16.64;68.63
68804;SHT31;55787;52.678;13.314;2023-05-20T09:55:16;16.73;67.50
68804;SHT31;55787;52.678;13.314;2023-05-20T09:57:44;16.95;66.97
68804;SHT31;55787;52.678;13.314;2023-05-20T10:00:12;16.83;66.53
68804;SHT31;55787;52.678;13.314;2023-05-20T10:02:52;16.74;66.84
68804;SHT31;55787;52.678;13.314;2023-05-20T10:05:26;16.53;66.83
68804;SHT31;55787;52.678;13.314;2023-05-20T10:08:25;16.32;67.96
68804;SHT31;55787;52.678;13.314;2023-05-20T10:11:21;16.25;67.69
68804;SHT31;55787;52.678;13.314;2023-05-20T10:17:00;16.36;68.04
68804;SHT31;55787;52.678;13.314;2023-05-20T10:19:33;16.46;68.01
68804;SHT31;55787;52.678;13.314;2023-05-20T10:22:05;16.56;68.96
68804;SHT31;55787;52.678;13.314;2023-05-20T10:24:36;16.63;68.47
68804;SHT31;55787;52.678;13.314;2023-05-20T10:27:07;16.59;68.35
68804;SHT31;55787;52.678;13.314;2023-05-20T10:29:45;16.59;68.13
68804;SHT31;55787;52.678;13.314;2023-05-20T10:32:24;16.53;68.39
68804;SHT31;55787;52.678;13.314;2023-05-20T10:34:51;16.52;68.40
68804;SHT31;55787;52.678;13.314;2023-05-20T10:37:26;16.43;68.88
68804;SHT31;55787;52.678;13.314;2023-05-20T10:40:13;16.69;69.43
68804;SHT31;55787;52.678;13.314;2023-05-20T10:42:40;16.84;68.47
68804;SHT31;55787;52.678;13.314;2023-05-20T10:45:08;17.01;67.32
68804;SHT31;55787;52.678;13.314;2023-05-20T10:47:35;17.07;68.22
68804;SHT31;55787;52.678;13.314;2023-05-20T10:50:03;17.15;66.90
68804;SHT31;55787;52.678;13.314;2023-05-20T10:52:35;17.25;66.88
68804;SHT31;55787;52.678;13.314;2023-05-20T10:55:03;17.22;66.66
68804;SHT31;55787;52.678;13.314;2023-05-20T10:57:30;17.27;66.26
68804;SHT31;55787;52.678;13.314;2023-05-20T11:00:00;17.20;66.82
68804;SHT31;55787;52.678;13.314;2023-05-20T11:02:27;17.38;65.38
68804;SHT31;55787;52.678;13.314;2023-05-20T11:04:55;17.87;65.60
68804;SHT31;55787;52.678;13.314;2023-05-20T11:07:32;18.68;63.34
68804;SHT31;55787;52.678;13.314;2023-05-20T11:09:59;19.29;62.14
68804;SHT31;55787;52.678;13.314;2023-05-20T11:12:26;19.64;61.63
68804;SHT31;55787;52.678;13.314;2023-05-20T11:14:53;19.81;60.21
68804;SHT31;55787;52.678;13.314;2023-05-20T11:17:21;19.84;61.31
68804;SHT31;55787;52.678;13.314;2023-05-20T11:19:47;19.88;60.90
68804;SHT31;55787;52.678;13.314;2023-05-20T11:22:14;19.78;61.68
68804;SHT31;55787;52.678;13.314;2023-05-20T11:24:41;19.82;59.31
68804;SHT31;55787;52.678;13.314;2023-05-20T11:27:08;19.70;60.21
68804;SHT31;55787;52.678;13.314;2023-05-20T11:29:35;20.72;58.96
68804;SHT31;55787;52.678;13.314;2023-05-20T11:32:02;21.40;54.10
68804;SHT31;55787;52.678;13.314;2023-05-20T11:34:34;20.84;55.95
68804;SHT31;55787;52.678;13.314;2023-05-20T11:37:06;20.69;55.85
68804;SHT31;55787;52.678;13.314;2023-05-20T11:39:33;20.42;56.72
68804;SHT31;55787;52.678;13.314;2023-05-20T11:42:00;20.22;57.43
68804;SHT31;55787;52.678;13.314;2023-05-20T11:44:26;20.29;58.26
68804;SHT31;55787;52.678;13.314;2023-05-20T11:46:59;20.57;55.94
68804;SHT31;55787;52.678;13.314;2023-05-20T11:49:26;20.97;55.19
68804;SHT31;55787;52.678;13.314;2023-05-20T11:51:53;21.30;54.66
68804;SHT31;55787;52.678;13.314;2023-05-20T11:54:21;22.36;51.88
68804;SHT31;55787;52.678;13.314;2023-05-20T11:56:48;23.83;49.32
68804;SHT31;55787;52.678;13.314;2023-05-20T11:59:15;24.31;46.25
68804;SHT31;55787;52.678;13.314;2023-05-20T12:01:42;24.47;46.31
68804;SHT31;55787;52.678;13.314;2023-05-20T12:04:09;23.80;48.60
68804;SHT31;55787;52.678;13.314;2023-05-20T12:06:36;22.40;50.61
68804;SHT31;55787;52.678;13.314;2023-05-20T12:09:04;21.65;53.81
68804;SHT31;55787;52.678;13.314;2023-05-20T12:11:33;21.26;53.95
68804;SHT31;55787;52.678;13.314;2023-05-20T12:14:02;21.26;53.95
68804;SHT31;55787;52.678;13.314;2023-05-20T12:16:30;21.82;52.22
68804;SHT31;55787;52.678;13.314;2023-05-20T12:18:57;21.65;54.15
68804;SHT31;55787;52.678;13.314;2023-05-20T12:21:24;22.05;51.68
68804;SHT31;55787;52.678;13.314;2023-05-20T12:23:50;21.78;53.11
68804;SHT31;55787;52.678;13.314;2023-05-20T12:26:24;21.99;52.90
68804;SHT31;55787;52.678;13.314;2023-05-20T12:28:51;21.71;54.05
68804;SHT31;55787;52.678;13.314;2023-05-20T12:31:18;21.59;55.04
68804;SHT31;55787;52.678;13.314;2023-05-20T12:33:45;21.42;54.49
68804;SHT31;55787;52.678;13.314;2023-05-20T12:36:13;21.00;55.59
68804;SHT31;55787;52.678;13.314;2023-05-20T12:38:40;21.38;54.29
68804;SHT31;55787;52.678;13.314;2023-05-20T12:41:06;21.69;54.22
68804;SHT31;55787;52.678;13.314;2023-05-20T12:43:34;21.42;55.55
68804;SHT31;55787;52.678;13.314;2023-05-20T12:46:03;21.78;54.58
68804;SHT31;55787;52.678;13.314;2023-05-20T12:48:29;22.86;53.08
68804;SHT31;55787;52.678;13.314;2023-05-20T12:50:56;23.83;49.38
68804;SHT31;55787;52.678;13.314;2023-05-20T12:53:23;24.06;50.05
68804;SHT31;55787;52.678;13.314;2023-05-20T12:55:49;23.73;49.49
68804;SHT31;55787;52.678;13.314;2023-05-20T12:58:16;24.48;49.16
68804;SHT31;55787;52.678;13.314;2023-05-20T13:00:43;24.37;48.84
68804;SHT31;55787;52.678;13.314;2023-05-20T13:03:10;23.63;49.39
68804;SHT31;55787;52.678;13.314;2023-05-20T13:05:37;23.42;50.02
68804;SHT31;55787;52.678;13.314;2023-05-20T13:08:04;23.84;49.88
68804;SHT31;55787;52.678;13.314;2023-05-20T13:10:31;24.06;48.24
68804;SHT31;55787;52.678;13.314;2023-05-20T13:12:58;24.08;47.66
68804;SHT31;55787;52.678;13.314;2023-05-20T13:15:25;24.29;49.78
68804;SHT31;55787;52.678;13.314;2023-05-20T13:17:52;24.20;48.85
68804;SHT31;55787;52.678;13.314;2023-05-20T13:20:19;23.22;50.84
68804;SHT31;55787;52.678;13.314;2023-05-20T13:22:46;23.22;50.37
68804;SHT31;55787;52.678;13.314;2023-05-20T13:25:15;22.83;51.29
68804;SHT31;55787;52.678;13.314;2023-05-20T13:27:42;23.05;52.16
68804;SHT31;55787;52.678;13.314;2023-05-20T13:30:09;23.02;52.09
68804;SHT31;55787;52.678;13.314;2023-05-20T13:32:36;22.98;51.72
68804;SHT31;55787;52.678;13.314;2023-05-20T13:35:03;23.29;52.09
68804;SHT31;55787;52.678;13.314;2023-05-20T13:37:30;22.98;51.34
68804;SHT31;55787;52.678;13.314;2023-05-20T13:39:57;22.46;52.90
68804;SHT31;55787;52.678;13.314;2023-05-20T13:42:23;22.54;52.42
68804;SHT31;55787;52.678;13.314;2023-05-20T13:44:50;22.58;52.03
68804;SHT31;55787;52.678;13.314;2023-05-20T13:47:17;22.39;52.07
68804;SHT31;55787;52.678;13.314;2023-05-20T13:49:43;22.00;52.54
68804;SHT31;55787;52.678;13.314;2023-05-20T13:52:10;21.75;53.41
68804;SHT31;55787;52.678;13.314;2023-05-20T13:54:37;21.59;54.79
68804;SHT31;55787;52.678;13.314;2023-05-20T13:57:04;21.99;53.98
68804;SHT31;55787;52.678;13.314;2023-05-20T13:59:33;22.08;53.41
68804;SHT31;55787;52.678;13.314;2023-05-20T14:02:00;22.20;54.38
68804;SHT31;55787;52.678;13.314;2023-05-20T14:04:27;21.95;53.78
68804;SHT31;55787;52.678;13.314;2023-05-20T14:06:54;21.92;54.18
68804;SHT31;55787;52.678;13.314;2023-05-20T14:09:21;21.78;54.14
68804;SHT31;55787;52.678;13.314;2023-05-20T14:11:48;21.93;54.23
68804;SHT31;55787;52.678;13.314;2023-05-20T14:14:16;22.21;54.06
68804;SHT31;55787;52.678;13.314;2023-05-20T14:16:43;22.20;53.93
68804;SHT31;55787;52.678;13.314;2023-05-20T14:19:10;22.16;54.31
68804;SHT31;55787;52.678;13.314;2023-05-20T14:21:37;22.24;53.54
68804;SHT31;55787;52.678;13.314;2023-05-20T14:24:04;22.10;53.60
68804;SHT31;55787;52.678;13.314;2023-05-20T14:26:32;21.69;53.51
68804;SHT31;55787;52.678;13.314;2023-05-20T14:28:59;21.55;54.84
68804;SHT31;55787;52.678;13.314;2023-05-20T14:31:26;21.69;54.81
68804;SHT31;55787;52.678;13.314;2023-05-20T14:33:52;21.93;55.51
68804;SHT31;55787;52.678;13.314;2023-05-20T14:36:19;21.93;54.30
68804;SHT31;55787;52.678;13.314;2023-05-20T14:38:46;21.62;53.88
68804;SHT31;55787;52.678;13.314;2023-05-20T14:41:15;21.21;55.71
68804;SHT31;55787;52.678;13.314;2023-05-20T14:43:41;21.40;55.11
68804;SHT31;55787;52.678;13.314;2023-05-20T14:46:08;21.24;56.70
68804;SHT31;55787;52.678;13.314;2023-05-20T14:48:35;21.27;56.71
68804;SHT31;55787;52.678;13.314;2023-05-20T14:51:02;21.42;55.82
68804;SHT31;55787;52.678;13.314;2023-05-20T14:53:29;21.44;55.20
68804;SHT31;55787;52.678;13.314;2023-05-20T14:55:55;21.30;55.31
68804;SHT31;55787;52.678;13.314;2023-05-20T14:58:22;21.28;56.27
68804;SHT31;55787;52.678;13.314;2023-05-20T15:00:51;21.27;56.58
68804;SHT31;55787;52.678;13.314;2023-05-20T15:03:18;21.15;56.05
68804;SHT31;55787;52.678;13.314;2023-05-20T15:05:45;21.28;55.64
68804;SHT31;55787;52.678;13.314;2023-05-20T15:08:12;21.26;56.70
68804;SHT31;55787;52.678;13.314;2023-05-20T15:10:38;21.30;56.44
68804;SHT31;55787;52.678;13.314;2023-05-20T15:13:05;21.12;55.75
68804;SHT31;55787;52.678;13.314;2023-05-20T15:15:32;21.12;56.40
68804;SHT31;55787;52.678;13.314;2023-05-20T15:17:59;21.10;57.22
68804;SHT31;55787;52.678;13.314;2023-05-20T15:20:26;21.21;56.51
68804;SHT31;55787;52.678;13.314;2023-05-20T15:22:53;21.07;56.82
68804;SHT31;55787;52.678;13.314;2023-05-20T15:25:19;21.01;56.61
68804;SHT31;55787;52.678;13.314;2023-05-20T15:27:46;20.89;56.79
68804;SHT31;55787;52.678;13.314;2023-05-20T15:30:13;20.91;57.57